KBPI/BPI METAR and TAF weather

Enter ICAO airport designator
Station Type Date Time Source
KBPI METAR 2021/05/15 22:53 UTC NOAA

KBPI 152253Z AUTO VRB04KT 10SM -RA BKN050 BKN070 OVC090 12/04 A3003 RMK AO2 LTG DSNT E AND SE RAB44 SLP107 P0000 T01170044


Station Type Date Time Source
KBPI Decoded METAR 2021/05/15 22:53 UTC NOAA

BIG PINEY-MARBLETON AIRPORT, WY, United States (KBPI) 42-35N 110-06W 2117M
May 15, 2021 - 06:53 PM EDT / 2021.05.15 2253 UTC
Wind: Variable at 5 MPH (4 KT):0
Visibility: 10 mile(s):0
Sky conditions: overcast
Weather: light rain; Lightning observed
Precipitation last hour: A trace
Temperature: 53.1 F (11.7 C)
Dew Point: 39.9 F (4.4 C)
Relative Humidity: 60%
Pressure (altimeter): 30.03 in. Hg (1016 hPa)
ob: KBPI 152253Z AUTO VRB04KT 10SM -RA BKN050 BKN070 OVC090 12/04 A3003 RMK AO2 LTG DSNT E AND SE RAB44 SLP107 P0000 T01170044
cycle: 23

Station Type Date Time Source
KBPI TAF 2021/05/15 18:33 UTC NOAA

TAF KBPI 151729Z 1518/1618 17010KT P6SM SCT050 OVC090
FM151900 25010G18KT P6SM VCTS SCT050CB BKN090
FM160200 33007KT P6SM SCT060 BKN090
FM160500 VRB05KT P6SM SCT090

Example: see airport list